Time;durP1;ratioP1;P1;durP2;ratioP2;P2;SDS_P1;SDS_P2;PMS_P1;PMS_P2;Temp;Humidity;BMP_temperature;BMP_pressure;BME280_temperature;BME280_humidity;BME280_pressure;Samples;Min_cycle;Max_cycle;Signal;HPM_P1;HPM_P2
2022/08/20 00:00:45;;;;;;;1163.22;899.10;;;;;;;24.07;62.26;98926.84;5095168;28;20024;-50
2022/08/20 00:03:21;;;;;;;508.63;458.40;;;;;;;23.73;61.67;98924.16;5094990;28;20032;-49
2022/08/20 00:05:54;;;;;;;72.38;65.05;;;;;;;23.52;61.66;98918.16;5095157;28;20032;-50
2022/08/20 00:08:21;;;;;;;507.77;453.50;;;;;;;23.23;61.98;98926.13;5093782;28;20032;-49
2022/08/20 00:10:49;;;;;;;1316.53;824.38;;;;;;;23.03;62.74;98927.84;5094996;28;20027;-50
2022/08/20 00:13:21;;;;;;;1228.53;845.35;;;;;;;22.98;62.82;98924.38;5094979;28;20029;-49
2022/08/20 00:15:47;;;;;;;1227.10;887.15;;;;;;;22.90;62.81;98925.75;5093613;28;20028;-50
2022/08/20 00:18:13;;;;;;;415.60;358.38;;;;;;;22.87;62.80;98924.41;5093589;28;20031;-50
2022/08/20 00:20:43;;;;;;;108.82;93.07;;;;;;;22.82;63.14;98923.63;5094742;28;20107;-49
2022/08/20 00:23:09;;;;;;;187.50;169.50;;;;;;;22.76;63.08;98927.41;5093396;28;20069;-49
2022/08/20 00:25:35;;;;;;;80.47;59.67;;;;;;;22.69;62.99;98930.41;5093353;28;20031;-49
2022/08/20 00:28:02;;;;;;;43.53;32.08;;;;;;;22.65;62.90;98926.66;5094389;28;20055;-49
2022/08/20 00:30:30;;;;;;;51.53;36.15;;;;;;;22.58;62.86;98932.31;5094477;28;20123;-50
2022/08/20 00:33:00;;;;;;;39.95;29.40;;;;;;;22.56;62.95;98928.28;5094473;28;20059;-49
2022/08/20 00:35:29;;;;;;;32.10;16.10;;;;;;;22.52;63.16;98925.38;5094468;28;20077;-50
2022/08/20 00:37:55;;;;;;;32.55;26.40;;;;;;;22.50;62.96;98924.84;5094462;28;20077;-50
2022/08/20 00:40:35;;;;;;;23.83;10.35;;;;;;;22.43;63.32;98927.81;5094451;28;20032;-49
2022/08/20 00:43:04;;;;;;;38.92;24.08;;;;;;;22.42;63.58;98922.75;5094367;28;20064;-49
2022/08/20 00:45:32;;;;;;;26.65;11.75;;;;;;;22.39;64.14;98928.63;5094302;28;20055;-50
2022/08/20 00:47:58;;;;;;;288.10;262.67;;;;;;;22.39;64.17;98931.31;5094232;28;20031;-48
2022/08/20 00:50:32;;;;;;;24.80;19.75;;;;;;;22.43;64.17;98921.66;5092950;28;20016;-50
2022/08/20 00:53:01;;;;;;;13.93;8.70;;;;;;;22.51;63.91;98921.09;5094287;28;20032;-49
2022/08/20 00:55:28;;;;;;;15.25;5.88;;;;;;;22.53;63.98;98919.75;5094073;28;20025;-49
2022/08/20 00:57:58;;;;;;;35.72;7.60;;;;;;;22.53;63.50;98918.94;5094065;28;20028;-49
2022/08/20 01:00:36;;;;;;;19.02;9.90;;;;;;;22.46;63.61;98913.91;5094010;28;20164;-48
2022/08/20 01:03:02;;;;;;;9.02;4.55;;;;;;;22.43;63.82;98918.97;5093982;28;20024;-50
2022/08/20 01:05:29;;;;;;;100.80;91.38;;;;;;;22.45;63.47;98912.28;5092565;28;20024;-50
2022/08/20 01:07:55;;;;;;;47.15;42.03;;;;;;;22.50;64.09;98919.50;5093902;28;20028;-50
2022/08/20 01:10:26;;;;;;;15.70;7.88;;;;;;;22.61;63.86;98928.28;5092508;28;20020;-48
2022/08/20 01:12:56;;;;;;;17.48;8.23;;;;;;;22.72;64.00;98916.47;5093867;28;20039;-50
2022/08/20 01:15:25;;;;;;;15.45;6.80;;;;;;;22.78;63.58;98919.91;5093710;28;20070;-50
2022/08/20 01:17:56;;;;;;;9.45;5.00;;;;;;;22.76;63.80;98906.84;5093682;28;20024;-49
2022/08/20 01:20:27;;;;;;;506.38;452.52;;;;;;;22.71;63.83;98901.50;5093600;28;20107;-50
2022/08/20 01:23:31;;;;;;;56.22;38.05;;;;;;;22.69;64.21;98914.34;5093527;28;20024;-49
2022/08/20 01:26:08;;;;;;;9.75;4.95;;;;;;;22.66;63.88;98902.31;5093542;28;20043;-49
2022/08/20 01:28:37;;;;;;;172.95;156.65;;;;;;;22.58;63.95;98910.09;5093283;28;20196;-50
2022/08/20 01:31:13;;;;;;;12.85;9.98;;;;;;;22.48;64.27;98911.75;5093445;28;20012;-49
2022/08/20 01:33:39;;;;;;;48.85;43.58;;;;;;;22.43;64.46;98911.75;5092072;28;20028;-50
2022/08/20 01:36:05;;;;;;;80.25;72.18;;;;;;;22.41;64.43;98905.88;5093372;28;20027;-50
2022/08/20 01:38:33;;;;;;;316.52;286.17;;;;;;;22.46;64.55;98903.19;5093272;28;20020;-49
2022/08/20 01:41:20;;;;;;;107.55;97.22;;;;;;;22.49;64.37;98908.00;5091917;28;20119;-49
2022/08/20 01:43:48;;;;;;;18.45;14.73;;;;;;;22.51;64.17;98903.16;5091840;28;20028;-49
2022/08/20 01:46:16;;;;;;;27.15;23.77;;;;;;;22.59;63.97;98911.72;5093147;28;20013;-49
2022/08/20 01:48:42;;;;;;;29.90;21.85;;;;;;;22.66;63.87;98912.22;5093094;28;20026;-49
2022/08/20 01:51:18;;;;;;;559.97;504.02;;;;;;;22.70;63.78;98907.94;5093047;28;20089;-50
2022/08/20 01:53:48;;;;;;;1999.90;999.90;;;;;;;22.74;63.73;98900.94;5091649;28;20118;-50
2022/08/20 01:56:18;;;;;;;1577.30;854.53;;;;;;;22.67;63.78;98900.44;5092921;28;20020;-50
2022/08/20 01:58:51;;;;;;;286.92;216.48;;;;;;;22.51;64.08;98911.19;5092971;28;20114;-49
2022/08/20 02:01:31;;;;;;;110.13;79.22;;;;;;;22.40;64.40;98909.63;5092478;28;20036;-49
2022/08/20 02:03:58;;;;;;;53.63;31.30;;;;;;;22.31;64.55;98911.25;5092859;28;20028;-49
2022/08/20 02:06:26;;;;;;;88.53;59.72;;;;;;;22.26;65.14;98909.41;5092742;28;20012;-50
2022/08/20 02:08:54;;;;;;;73.30;52.53;;;;;;;22.25;65.61;98897.09;5091389;28;20031;-49
2022/08/20 02:11:21;;;;;;;55.83;33.45;;;;;;;22.24;65.71;98905.41;5091304;28;20020;-49
2022/08/20 02:13:51;;;;;;;28.98;19.80;;;;;;;22.18;65.74;98901.13;5092626;28;20028;-49
2022/08/20 02:16:19;;;;;;;26.23;14.68;;;;;;;22.12;65.95;98898.44;5092573;28;20050;-50
2022/08/20 02:18:45;;;;;;;16.33;10.02;;;;;;;22.04;65.78;98896.31;5092558;28;20016;-49
2022/08/20 02:21:11;;;;;;;18.30;9.48;;;;;;;21.96;66.24;98896.09;5092439;28;20401;-49
2022/08/20 02:23:37;;;;;;;42.50;17.17;;;;;;;21.85;66.67;98896.09;5092411;28;20024;-50
2022/08/20 02:26:04;;;;;;;26.27;15.05;;;;;;;21.80;66.92;98896.09;5091112;28;20048;-49
2022/08/20 02:28:30;;;;;;;16.65;7.55;;;;;;;21.78;67.22;98900.13;5092145;28;20419;-49
2022/08/20 02:30:56;;;;;;;27.10;10.40;;;;;;;21.77;67.75;98898.50;5092357;28;20026;-49
2022/08/20 02:33:22;;;;;;;21.00;12.68;;;;;;;21.78;67.87;98890.22;5092335;28;20571;-49
2022/08/20 02:35:49;;;;;;;14.65;8.02;;;;;;;21.91;67.65;98897.69;5090912;28;20036;-50
2022/08/20 02:38:15;;;;;;;12.20;4.78;;;;;;;22.04;67.26;98896.31;5092227;28;20021;-49
2022/08/20 02:40:44;;;;;;;19.90;6.70;;;;;;;22.14;67.28;98895.50;5090876;28;20101;-50
2022/08/20 02:43:11;;;;;;;14.43;4.18;;;;;;;22.28;66.97;98890.44;5092080;28;20023;-49
2022/08/20 02:45:42;;;;;;;17.25;6.32;;;;;;;22.38;66.28;98889.59;5092108;28;20370;-49
2022/08/20 02:48:19;;;;;;;4.90;3.03;;;;;;;22.40;66.17;98882.91;5092144;28;20024;-50
2022/08/20 02:50:46;;;;;;;9.07;3.22;;;;;;;22.30;66.56;98877.59;5092116;28;20032;-49
2022/08/20 02:53:12;;;;;;;6.32;3.38;;;;;;;22.21;66.74;98879.19;5092015;28;20036;-50
2022/08/20 02:55:38;;;;;;;13.02;3.80;;;;;;;22.18;66.59;98885.09;5090661;28;20444;-50
2022/08/20 02:58:04;;;;;;;11.18;3.40;;;;;;;22.26;66.79;98879.22;5092035;28;20021;-48
2022/08/20 03:00:31;;;;;;;17.55;3.85;;;;;;;22.32;66.46;98875.44;5091866;28;20410;-50
2022/08/20 03:02:57;;;;;;;13.98;3.13;;;;;;;22.29;66.41;98876.75;5091863;28;20020;-50
2022/08/20 03:05:23;;;;;;;5.88;2.88;;;;;;;22.24;66.39;98871.44;5091904;28;20028;-49
2022/08/20 03:07:55;;;;;;;13.52;3.03;;;;;;;22.20;66.48;98877.59;5090555;28;20070;-49
2022/08/20 03:10:27;;;;;;;9.20;2.85;;;;;;;22.25;66.21;98880.25;5091874;28;20043;-49
2022/08/20 03:12:53;;;;;;;11.40;2.85;;;;;;;22.23;66.01;98872.47;5090520;28;20390;-50
2022/08/20 03:15:19;;;;;;;7.30;2.33;;;;;;;22.25;66.13;98877.59;5095549;28;20027;-50
2022/08/20 03:17:45;;;;;;;14.90;2.85;;;;;;;22.23;66.01;98867.13;5094671;28;20020;-50
2022/08/20 03:20:11;;;;;;;7.05;5.90;;;;;;;22.19;66.31;98874.09;5095935;28;20426;-49
2022/08/20 03:22:37;;;;;;;5.22;2.40;;;;;;;22.15;66.00;98873.03;5095845;28;20043;-50
2022/08/20 03:25:04;;;;;;;9.13;2.95;;;;;;;22.14;66.21;98880.25;5095872;28;20024;-50
2022/08/20 03:27:30;;;;;;;19.42;3.90;;;;;;;22.32;66.98;98872.78;5095552;28;20020;-49
2022/08/20 03:29:55;;;;;;;13.23;3.50;;;;;;;22.98;65.23;98868.97;5095930;28;20511;-49
2022/08/20 03:32:21;;;;;;;21.70;3.75;;;;;;;23.63;63.11;98867.97;5095760;28;20115;-50
2022/08/20 03:34:47;;;;;;;6.68;2.78;;;;;;;24.03;61.46;98863.34;5094371;28;20020;-50
2022/08/20 03:37:13;;;;;;;12.32;2.67;;;;;;;24.25;59.85;98865.50;5095684;28;20020;-50
2022/08/20 03:39:39;;;;;;;11.55;2.60;;;;;;;24.16;60.45;98873.38;5094272;28;20020;-50
2022/08/20 03:42:04;;;;;;;11.60;2.30;;;;;;;24.02;59.99;98865.19;5095499;28;20016;-50
2022/08/20 03:44:30;;;;;;;7.75;2.90;;;;;;;23.72;60.86;98872.47;5094478;28;20040;-49
2022/08/20 03:46:56;;;;;;;15.00;2.85;;;;;;;23.63;61.67;98870.66;5095436;28;20073;-50
2022/08/20 03:49:23;;;;;;;25.80;4.20;;;;;;;23.66;62.25;98873.59;5095434;28;20034;-49
2022/08/20 03:51:49;;;;;;;17.48;3.70;;;;;;;24.22;60.66;98868.75;5095358;28;20489;-50
2022/08/20 03:54:15;;;;;;;23.63;3.67;;;;;;;24.62;59.56;98870.16;5095301;28;20070;-51
2022/08/20 03:56:41;;;;;;;19.95;4.13;;;;;;;24.66;58.97;98865.03;5093934;28;20554;-49
2022/08/20 03:59:07;;;;;;;17.13;3.63;;;;;;;24.70;58.79;98866.03;5095312;28;20024;-50
2022/08/20 04:01:33;;;;;;;13.95;2.97;;;;;;;24.99;58.21;98865.09;5095407;28;20486;-50
2022/08/20 04:03:59;;;;;;;38.20;7.47;;;;;;;25.20;57.54;98866.41;5095069;28;20032;-50
2022/08/20 04:06:28;;;;;;;14.13;4.18;;;;;;;25.11;56.92;98873.50;5095131;28;20042;-48
2022/08/20 04:08:54;;;;;;;10.65;2.70;;;;;;;24.68;57.74;98868.22;5095083;28;20016;-50
2022/08/20 04:11:20;;;;;;;15.60;2.50;;;;;;;24.28;58.65;98873.75;5094968;28;20115;-50
2022/08/20 04:13:45;;;;;;;11.73;3.03;;;;;;;24.07;59.54;98878.56;5093625;28;20107;-50
2022/08/20 04:16:11;;;;;;;19.63;3.90;;;;;;;24.00;60.03;98879.97;5094922;28;20394;-49
2022/08/20 04:18:37;;;;;;;9.80;3.03;;;;;;;23.93;60.24;98883.00;5094866;28;20051;-48
2022/08/20 04:21:04;;;;;;;17.95;3.60;;;;;;;23.93;60.77;98885.69;5094849;28;20514;-50
2022/08/20 04:23:31;;;;;;;11.43;2.97;;;;;;;23.93;60.53;98880.31;5094715;28;20020;-50
2022/08/20 04:25:57;;;;;;;9.95;3.40;;;;;;;23.84;60.82;98877.44;5094489;28;20043;-50
2022/08/20 04:28:25;;;;;;;9.75;2.65;;;;;;;23.87;60.87;98882.25;5093081;28;20048;-50
2022/08/20 04:30:58;;;;;;;25.00;4.18;;;;;;;23.81;61.65;98882.59;5094625;28;20016;-50
2022/08/20 04:33:26;;;;;;;16.65;3.90;;;;;;;24.05;61.14;98878.06;5094623;28;20027;-50
2022/08/20 04:35:59;;;;;;;12.13;2.85;;;;;;;24.26;60.61;98894.72;5093251;28;20107;-50
2022/08/20 04:38:25;;;;;;;31.90;3.95;;;;;;;24.36;59.88;98898.38;5094521;28;20035;-49
2022/08/20 04:40:58;;;;;;;18.52;3.53;;;;;;;24.40;59.98;98904.75;5093145;28;20028;-50
2022/08/20 04:43:34;;;;;;;10.77;3.15;;;;;;;24.56;59.23;98905.41;5094379;28;20081;-48
2022/08/20 04:46:05;;;;;;;5.88;2.22;;;;;;;24.48;58.71;98910.28;5094307;28;20031;-49
2022/08/20 04:48:31;;;;;;;9.85;2.47;;;;;;;24.14;59.48;98905.03;5094371;28;20062;-49
2022/08/20 04:50:58;;;;;;;15.27;3.28;;;;;;;24.05;60.28;98907.53;5094244;28;20027;-51
2022/08/20 04:53:26;;;;;;;11.95;2.83;;;;;;;24.20;60.08;98914.63;5094189;28;20078;-50
2022/08/20 04:55:55;;;;;;;16.67;3.72;;;;;;;24.27;59.96;98919.66;5094143;28;20013;-50
2022/08/20 04:58:29;;;;;;;12.73;2.72;;;;;;;24.22;59.95;98919.72;5094350;28;20024;-49
2022/08/20 05:01:01;;;;;;;10.25;3.03;;;;;;;24.17;60.38;98925.16;5094126;28;20059;-49
2022/08/20 05:03:27;;;;;;;13.48;2.95;;;;;;;24.20;60.42;98929.94;5092775;28;20024;-49
2022/08/20 05:05:53;;;;;;;25.88;3.60;;;;;;;24.26;60.10;98931.47;5094047;28;20070;-50
2022/08/20 05:08:21;;;;;;;18.83;3.38;;;;;;;24.29;60.03;98923.66;5094015;28;20048;-49
2022/08/20 05:10:48;;;;;;;14.93;3.13;;;;;;;24.37;59.67;98926.78;5094118;28;20016;-50
2022/08/20 05:13:17;;;;;;;11.68;3.17;;;;;;;24.08;59.96;98930.31;5092524;28;20031;-50
2022/08/20 05:15:47;;;;;;;8.02;2.83;;;;;;;23.82;60.76;98935.09;5093811;28;20054;-49
2022/08/20 05:18:17;;;;;;;9.70;2.78;;;;;;;23.62;61.61;98942.19;5093783;28;20016;-50
2022/08/20 05:20:43;;;;;;;14.43;2.58;;;;;;;23.63;61.86;98941.13;5094022;28;20515;-49
2022/08/20 05:23:11;;;;;;;14.15;3.72;;;;;;;23.44;63.15;98945.53;5092313;28;20510;-49
2022/08/20 05:25:39;;;;;;;5.75;2.28;;;;;;;23.62;62.18;98944.06;5092321;28;20508;-50
2022/08/20 05:28:11;;;;;;;16.80;4.00;;;;;;;23.45;62.96;98953.31;5092009;28;20039;-50
2022/08/20 05:30:43;;;;;;;8.00;2.90;;;;;;;23.37;62.65;98951.22;5093540;28;20022;-50
2022/08/20 05:33:11;;;;;;;10.50;2.90;;;;;;;23.24;63.09;98966.03;5093462;28;20035;-50
2022/08/20 05:35:37;;;;;;;11.52;2.85;;;;;;;23.19;63.63;98958.03;5093412;28;20016;-49
2022/08/20 05:38:05;;;;;;;5.97;2.50;;;;;;;23.27;63.14;98957.44;5091403;28;20034;-50
2022/08/20 05:40:31;;;;;;;6.15;2.08;;;;;;;23.27;63.14;98960.13;5093320;28;20019;-47
2022/08/20 05:42:57;;;;;;;14.98;2.63;;;;;;;23.28;63.16;98963.59;5091885;28;20061;-47
2022/08/20 05:45:23;;;;;;;18.35;7.95;;;;;;;23.27;63.08;98956.63;5091884;28;20024;-48
2022/08/20 05:47:49;;;;;;;11.98;3.05;;;;;;;23.27;63.53;98962.78;5091832;28;20097;-47
2022/08/20 05:50:17;;;;;;;31.33;27.85;;;;;;;23.20;63.76;98965.00;5093095;28;20055;-50
2022/08/20 05:52:44;;;;;;;6.00;2.50;;;;;;;23.21;63.50;98965.78;5091776;28;20127;-49
2022/08/20 05:55:12;;;;;;;6.32;2.03;;;;;;;23.26;63.48;98958.53;5092969;28;20024;-49
2022/08/20 05:57:39;;;;;;;12.75;3.20;;;;;;;23.30;64.26;98962.25;5091655;28;20100;-49
2022/08/20 06:00:08;;;;;;;11.18;3.15;;;;;;;23.24;64.76;98967.91;5092882;28;20016;-49
2022/08/20 06:05:18;;;;;;;50.78;20.42;;;;;;;23.08;66.50;98970.66;5092862;28;20062;-50
2022/08/20 06:07:45;;;;;;;15.13;4.90;;;;;;;23.36;65.63;98975.59;5091433;28;20443;-49
2022/08/20 06:10:11;;;;;;;9.02;3.45;;;;;;;23.44;65.96;98975.00;5092684;28;20024;-49
2022/08/20 06:12:38;;;;;;;26.67;4.15;;;;;;;23.31;65.95;98974.56;5092748;28;20024;-48
2022/08/20 06:15:05;;;;;;;17.85;3.85;;;;;;;23.25;65.61;98972.97;5092618;28;20017;-49
2022/08/20 06:17:32;;;;;;;15.02;3.50;;;;;;;23.36;65.56;98979.06;5091269;28;20427;-49
2022/08/20 06:20:03;;;;;;;88.45;78.85;;;;;;;23.44;66.51;98977.69;5092584;28;20028;-49
2022/08/20 06:22:28;;;;;;;14.65;4.93;;;;;;;23.29;67.13;98967.88;5092764;28;20023;-47
2022/08/20 06:24:54;;;;;;;19.98;5.07;;;;;;;23.19;67.60;98984.00;5092511;28;20032;-47
2022/08/20 06:27:21;;;;;;;21.10;3.88;;;;;;;23.37;66.29;98980.69;5092403;28;20516;-49
2022/08/20 06:29:47;;;;;;;14.00;3.67;;;;;;;23.50;64.97;98973.88;5092255;28;20044;-49
2022/08/20 06:32:13;;;;;;;13.57;3.47;;;;;;;23.43;64.61;98979.56;5092325;28;20091;-50
2022/08/20 06:34:39;;;;;;;39.92;13.73;;;;;;;23.49;65.25;98986.50;5092352;28;20020;-50
2022/08/20 06:37:16;;;;;;;19.33;4.22;;;;;;;23.70;63.82;98987.16;5090931;28;20089;-47
2022/08/20 06:39:42;;;;;;;14.25;3.42;;;;;;;23.81;63.87;98984.44;5092264;28;20089;-49
2022/08/20 06:42:08;;;;;;;35.67;32.47;;;;;;;23.65;63.81;98986.41;5090742;28;20424;-49
2022/08/20 06:44:35;;;;;;;8.93;5.80;;;;;;;23.68;64.09;98992.00;5092159;28;20050;-49
2022/08/20 06:47:03;;;;;;;10.57;3.00;;;;;;;23.84;63.91;98989.22;5092081;28;20028;-50
2022/08/20 06:49:30;;;;;;;10.00;2.40;;;;;;;23.89;63.71;98986.53;5091995;28;20113;-49
2022/08/20 06:51:56;;;;;;;11.38;2.97;;;;;;;24.08;62.76;98987.41;5092087;28;20494;-49
2022/08/20 06:54:22;;;;;;;7.43;2.58;;;;;;;24.21;62.48;98985.97;5092030;28;20026;-49
2022/08/20 06:56:47;;;;;;;9.13;2.47;;;;;;;24.38;61.96;98982.03;5091993;28;20061;-49
2022/08/20 06:59:16;;;;;;;5.55;2.33;;;;;;;24.64;60.99;98980.72;5092009;28;20032;-50
2022/08/20 07:01:42;;;;;;;6.25;2.15;;;;;;;24.66;59.76;98985.81;5090641;28;20024;-50
2022/08/20 07:04:07;;;;;;;2.95;1.73;;;;;;;24.46;60.22;98978.75;5091838;28;20057;-48
2022/08/20 07:06:33;;;;;;;8.60;2.10;;;;;;;24.55;60.29;98985.13;5091871;28;20020;-48
2022/08/20 07:08:59;;;;;;;12.20;2.33;;;;;;;24.66;60.26;98986.59;5092443;28;20461;-49
2022/08/20 07:11:25;;;;;;;3.83;1.63;;;;;;;24.89;59.07;98984.19;5091866;28;20027;-49
2022/08/20 07:13:51;;;;;;;3.50;1.52;;;;;;;24.81;58.87;98980.25;5091874;28;20055;-49
2022/08/20 07:16:20;;;;;;;6.20;2.10;;;;;;;24.66;60.13;98978.53;5091844;28;20050;-49
2022/08/20 07:18:45;;;;;;;10.80;2.53;;;;;;;24.37;60.61;98983.94;5091852;28;20502;-49
2022/08/20 07:21:11;;;;;;;7.28;1.85;;;;;;;24.21;61.19;98979.81;5091793;28;20024;-50
2022/08/20 07:23:37;;;;;;;10.88;2.30;;;;;;;24.39;60.64;98984.47;5091695;28;20021;-50
2022/08/20 07:26:02;;;;;;;13.15;2.63;;;;;;;24.55;60.30;98984.31;5090439;28;20031;-49
2022/08/20 07:28:30;;;;;;;12.15;2.20;;;;;;;24.83;59.27;98979.97;5091307;28;20044;-49
2022/08/20 07:33:40;;;;;;;8.45;2.08;;;;;;;25.42;57.82;98988.63;5092047;28;20515;-49
2022/08/20 07:36:07;;;;;;;4.90;1.58;;;;;;;25.41;56.91;98989.72;5090330;28;20028;-50
2022/08/20 07:38:33;;;;;;;4.55;1.60;;;;;;;25.19;56.88;98995.63;5091665;28;20070;-49
2022/08/20 07:41:08;;;;;;;12.13;2.17;;;;;;;24.94;57.45;98994.06;5091579;28;20023;-50
2022/08/20 07:43:34;;;;;;;5.85;1.52;;;;;;;24.71;58.14;98997.28;5091564;28;20046;-49
2022/08/20 07:46:06;;;;;;;5.15;1.17;;;;;;;24.75;58.07;98992.16;5091526;28;20475;-49
2022/08/20 07:48:32;;;;;;;2.90;1.27;;;;;;;25.19;57.34;98995.63;5091545;28;20040;-49
2022/08/20 07:51:02;;;;;;;6.32;1.80;;;;;;;25.43;55.90;98992.91;5090209;28;20492;-48
2022/08/20 07:53:28;;;;;;;4.30;1.02;;;;;;;25.35;56.17;98994.34;5091725;28;20394;-48
2022/08/20 07:55:54;;;;;;;9.30;1.67;;;;;;;25.28;56.30;98986.66;5091406;28;20020;-48
2022/08/20 07:58:23;;;;;;;10.20;2.42;;;;;;;25.60;56.00;99001.25;5091383;28;20428;-48
2022/08/20 08:00:50;;;;;;;5.55;1.20;;;;;;;25.83;54.89;98993.38;5093930;28;20465;-48
2022/08/20 08:03:16;;;;;;;10.70;2.00;;;;;;;25.75;57.31;98988.66;5095108;28;20020;-50
2022/08/20 08:05:45;;;;;;;5.55;1.25;;;;;;;25.73;58.26;98994.34;5095388;28;20020;-50
2022/08/20 08:08:16;;;;;;;4.60;1.40;;;;;;;25.41;57.03;99000.47;5095058;28;20084;-49
2022/08/20 08:10:45;;;;;;;10.23;1.38;;;;;;;25.17;57.09;99003.16;5095107;28;20028;-48
2022/08/20 08:13:12;;;;;;;5.32;1.38;;;;;;;25.09;57.71;99001.91;5094979;28;20024;-47
2022/08/20 08:15:43;;;;;;;9.73;1.55;;;;;;;25.15;56.90;99000.75;5094952;28;20034;-48
2022/08/20 08:18:16;;;;;;;5.50;1.17;;;;;;;24.96;56.11;99013.38;5094895;28;20047;-48
2022/08/20 08:20:43;;;;;;;4.28;0.90;;;;;;;24.81;56.23;99012.47;5093745;28;20020;-47
2022/08/20 08:23:10;;;;;;;2.13;1.00;;;;;;;24.68;56.38;99021.22;5094751;28;20053;-48
2022/08/20 08:25:40;;;;;;;6.35;1.60;;;;;;;24.63;56.69;99015.88;5093465;28;20028;-47
2022/08/20 08:28:15;;;;;;;6.43;1.50;;;;;;;24.76;56.87;99009.06;5094290;28;20105;-48
2022/08/20 08:30:42;;;;;;;8.55;1.38;;;;;;;24.86;56.64;99008.94;5094711;28;20036;-48
2022/08/20 08:33:26;;;;;;;16.02;1.83;;;;;;;25.08;56.33;99005.72;5094591;28;20031;-48
2022/08/20 08:35:54;;;;;;;7.15;1.17;;;;;;;25.15;55.86;99008.03;5076473;28;20055;-50
2022/08/20 08:38:24;;;;;;;5.85;1.42;;;;;;;25.36;55.40;99003.22;5094519;28;20095;-49
2022/08/20 08:40:53;;;;;;;7.72;1.55;;;;;;;25.83;54.82;99002.25;5094464;28;20022;-49
2022/08/20 08:43:23;;;;;;;5.50;1.52;;;;;;;26.17;53.86;99001.19;5094329;28;20081;-49
2022/08/20 08:45:56;;;;;;;3.42;1.42;;;;;;;26.23;52.91;99004.59;5094445;28;20572;-49
2022/08/20 08:48:31;;;;;;;6.43;1.95;;;;;;;26.34;53.29;99002.50;5094325;28;20089;-48
2022/08/20 08:50:58;;;;;;;;;;;;;;;26.92;52.82;98993.88;5094798;28;20027;-48
2022/08/20 08:53:31;;;;;;;2.55;0.70;;;;;;;27.34;50.96;98991.13;5094201;28;19912;-50
2022/08/20 08:55:58;;;;;;;4.05;0.70;;;;;;;27.46;49.90;98981.41;5094243;28;20027;-49
2022/08/20 08:58:24;;;;;;;4.38;0.82;;;;;;;27.44;50.09;98983.63;5094232;28;20026;-48
2022/08/20 09:00:50;;;;;;;4.32;0.98;;;;;;;27.63;49.78;98972.69;5094120;28;20095;-48
2022/08/20 09:03:28;;;;;;;65.95;60.40;;;;;;;27.93;49.01;98970.38;5094016;28;20031;-47
2022/08/20 09:05:58;;;;;;;5.85;3.83;;;;;;;28.41;47.49;98975.06;5094082;28;20107;-48
2022/08/20 09:08:42;;;;;;;2.67;1.00;;;;;;;29.09;46.13;98970.16;5094010;28;20032;-49
2022/08/20 09:11:08;;;;;;;3.97;1.63;;;;;;;29.71;44.93;98968.31;5091610;28;20059;-49
2022/08/20 09:13:34;;;;;;;5.40;0.90;;;;;;;31.84;41.21;98965.41;5093745;28;20020;-49
2022/08/20 09:16:00;;;;;;;6.07;1.23;;;;;;;32.85;38.46;98963.28;5092520;28;20032;-49
2022/08/20 09:18:26;;;;;;;5.05;0.68;;;;;;;34.16;36.39;98972.00;5093755;28;20032;-50
2022/08/20 09:20:52;;;;;;;7.25;2.90;;;;;;;35.61;33.17;98963.91;5093698;28;20026;-49
2022/08/20 09:23:18;;;;;;;94.82;7.18;;;;;;;36.24;32.52;98962.75;5092328;28;20028;-50
2022/08/20 09:25:43;;;;;;;30.58;2.10;;;;;;;36.34;31.35;98959.41;5092259;28;20498;-48
2022/08/20 09:28:09;;;;;;;27.08;2.78;;;;;;;36.52;31.10;98958.88;5093343;28;20051;-48
2022/08/20 09:30:35;;;;;;;13.38;1.88;;;;;;;36.82;30.11;98953.47;5092244;28;20024;-49
2022/08/20 09:33:01;;;;;;;5.07;0.82;;;;;;;36.08;31.19;98951.13;5092128;28;20057;-49
2022/08/20 09:35:28;;;;;;;8.60;1.05;;;;;;;36.33;30.72;98954.28;5093467;28;20012;-49
2022/08/20 09:37:55;;;;;;;10.02;2.10;;;;;;;36.82;30.06;98948.00;5092091;28;20055;-50
2022/08/20 09:40:21;;;;;;;8.90;1.08;;;;;;;38.04;28.69;98943.91;5092102;28;20032;-50
2022/08/20 09:42:48;;;;;;;11.10;3.28;;;;;;;37.89;28.09;98947.69;5093243;28;20016;-49
2022/08/20 09:45:14;;;;;;;4.30;0.60;;;;;;;36.88;29.12;98949.25;5093274;28;20466;-50
2022/08/20 09:47:40;;;;;;;5.47;0.93;;;;;;;36.40;29.97;98943.47;5093271;28;20103;-49
2022/08/20 09:50:07;;;;;;;5.00;4.55;;;;;;;36.74;29.45;98938.91;5091828;28;20024;-48
2022/08/20 09:52:38;;;;;;;4.65;1.38;;;;;;;37.37;28.71;98933.88;5091798;28;20489;-49
2022/08/20 09:55:21;;;;;;;6.03;2.13;;;;;;;38.58;26.56;98927.09;5093069;28;20031;-49
2022/08/20 09:57:48;;;;;;;5.97;1.40;;;;;;;40.00;25.15;98923.28;5093170;28;20103;-49
2022/08/20 10:00:14;;;;;;;4.25;0.70;;;;;;;40.75;23.90;98927.16;5093000;28;20557;-48
2022/08/20 10:02:41;;;;;;;6.05;0.63;;;;;;;39.30;24.94;98931.78;5092901;28;20035;-49
2022/08/20 10:05:07;;;;;;;4.38;0.75;;;;;;;37.77;26.43;98935.06;5092901;28;20059;-49
2022/08/20 10:07:35;;;;;;;1.52;0.70;;;;;;;36.77;27.48;98929.97;5091556;28;20152;-49
2022/08/20 10:10:01;;;;;;;5.78;0.95;;;;;;;35.61;29.22;98931.94;5091412;28;20490;-49
2022/08/20 10:12:27;;;;;;;1.95;0.70;;;;;;;34.46;30.69;98933.41;5092665;28;20069;-50
2022/08/20 10:14:54;;;;;;;6.28;0.93;;;;;;;34.40;31.51;98933.66;5091361;28;20027;-48
2022/08/20 10:17:20;;;;;;;5.25;0.77;;;;;;;34.03;31.94;98925.75;5092664;28;20052;-48
2022/08/20 10:19:46;;;;;;;1.45;0.68;;;;;;;33.20;33.01;98930.94;5091299;28;20497;-47
2022/08/20 10:22:12;;;;;;;5.38;1.10;;;;;;;32.35;33.72;98927.16;5092187;28;20024;-49
2022/08/20 10:24:38;;;;;;;32.08;9.82;;;;;;;31.86;34.94;98932.50;5092468;28;20081;-49
2022/08/20 10:27:03;;;;;;;247.45;149.63;;;;;;;32.02;35.47;98932.69;5091103;28;20032;-50
2022/08/20 10:29:30;;;;;;;744.55;542.53;;;;;;;32.41;35.58;98920.34;5090908;28;20043;-50
2022/08/20 10:32:06;;;;;;;153.98;90.68;;;;;;;32.99;34.64;98917.47;5092361;28;20028;-49
2022/08/20 10:34:32;;;;;;;41.00;20.98;;;;;;;33.92;32.75;98916.50;5091091;28;20056;-48
2022/08/20 10:36:57;;;;;;;27.52;15.02;;;;;;;35.08;30.67;98933.63;5092320;28;20059;-50
2022/08/20 10:39:23;;;;;;;27.08;15.13;;;;;;;35.23;31.04;98921.06;5092298;28;20457;-47
2022/08/20 10:41:49;;;;;;;9.48;4.78;;;;;;;34.83;31.08;98936.59;5090874;28;20055;-48
2022/08/20 10:44:16;;;;;;;9.00;4.03;;;;;;;34.38;31.14;98922.31;5090805;28;20482;-49
2022/08/20 10:46:44;;;;;;;6.28;3.30;;;;;;;34.14;31.89;98923.31;5092145;28;20035;-48
2022/08/20 10:49:10;;;;;;;8.05;2.63;;;;;;;33.92;32.18;98927.41;5092352;28;20547;-48
2022/08/20 10:51:36;;;;;;;730.28;562.25;;;;;;;34.10;31.90;98916.19;5092081;28;20074;-48
2022/08/20 10:54:03;;;;;;;746.25;523.63;;;;;;;34.54;31.66;98918.78;5092099;28;20430;-48
2022/08/20 10:56:28;;;;;;;214.43;130.68;;;;;;;34.78;31.37;98929.50;5092078;28;20039;-48
2022/08/20 10:58:54;;;;;;;124.28;80.57;;;;;;;35.53;30.46;98913.06;5092011;28;20024;-49
2022/08/20 11:01:20;;;;;;;99.63;64.22;;;;;;;36.02;29.72;98922.53;5073886;28;20035;-48
2022/08/20 11:03:45;;;;;;;36.47;22.38;;;;;;;35.55;29.50;98919.75;5091844;28;20020;-48
2022/08/20 11:06:11;;;;;;;128.15;85.97;;;;;;;35.34;29.90;98920.13;5091969;28;20473;-48
2022/08/20 11:08:37;;;;;;;177.98;113.57;;;;;;;35.19;30.56;98923.72;5090594;28;20027;-48
2022/08/20 11:11:04;;;;;;;27.35;15.35;;;;;;;35.81;29.43;98912.81;5091872;28;20020;-48
2022/08/20 11:13:30;;;;;;;22.45;13.38;;;;;;;35.96;28.66;98922.84;5091859;28;20020;-48
2022/08/20 11:15:56;;;;;;;23.33;14.80;;;;;;;35.74;29.48;98918.19;5091814;28;20107;-48
2022/08/20 11:18:22;;;;;;;17.38;13.48;;;;;;;35.56;29.75;98920.56;5090552;28;20107;-48
2022/08/20 11:20:47;;;;;;;15.52;6.90;;;;;;;35.19;30.30;98919.09;5091762;28;20020;-48
2022/08/20 11:23:13;;;;;;;11.75;6.43;;;;;;;34.61;31.28;98919.75;5091726;28;20024;-47
2022/08/20 11:25:39;;;;;;;11.45;5.75;;;;;;;34.13;32.10;98921.72;5090446;28;20055;-47
2022/08/20 11:28:05;;;;;;;9.77;6.18;;;;;;;33.52;33.07;98920.13;5090361;28;20468;-48
2022/08/20 11:30:34;;;;;;;8.45;3.45;;;;;;;33.09;33.57;98924.38;5091760;28;20039;-48
2022/08/20 11:33:01;;;;;;;8.63;2.25;;;;;;;33.01;34.13;98915.19;5091642;28;20392;-49